sensor_id;sensor_type;location;lat;lon;timestamp;pressure;altitude;pressure_sealevel;temperature;humidity
62978;BME280;49073;42.352;23.808;2024-03-23T00:53:44;94761.88;;;0.44;75.68
62978;BME280;49073;42.352;23.808;2024-03-23T00:56:45;94754.09;;;0.53;75.71
62978;BME280;49073;42.352;23.808;2024-03-23T00:59:45;94758.75;;;0.42;76.25
62978;BME280;49073;42.352;23.808;2024-03-23T01:02:46;94757.66;;;0.62;75.95
62978;BME280;49073;42.352;23.808;2024-03-23T01:05:46;94759.41;;;0.67;76.20
62978;BME280;49073;42.352;23.808;2024-03-23T01:08:47;94750.28;;;0.78;75.83
62978;BME280;49073;42.352;23.808;2024-03-23T01:11:47;94751.56;;;0.81;75.42
62978;BME280;49073;42.352;23.808;2024-03-23T01:14:48;94746.25;;;0.86;73.61
62978;BME280;49073;42.352;23.808;2024-03-23T01:17:48;94750.38;;;0.73;74.52
62978;BME280;49073;42.352;23.808;2024-03-23T01:20:49;94752.59;;;0.66;74.74
62978;BME280;49073;42.352;23.808;2024-03-23T01:23:49;94750.38;;;0.59;75.16
62978;BME280;49073;42.352;23.808;2024-03-23T01:26:51;94748.28;;;0.56;75.11
62978;BME280;49073;42.352;23.808;2024-03-23T01:29:52;94747.88;;;0.49;75.22
62978;BME280;49073;42.352;23.808;2024-03-23T01:32:52;94747.84;;;0.35;75.85
62978;BME280;49073;42.352;23.808;2024-03-23T01:35:54;94739.13;;;0.39;75.68
62978;BME280;49073;42.352;23.808;2024-03-23T01:38:54;94743.22;;;0.26;76.03
62978;BME280;49073;42.352;23.808;2024-03-23T01:41:55;94739.13;;;0.39;75.77
62978;BME280;49073;42.352;23.808;2024-03-23T01:44:55;94736.13;;;0.46;75.23
62978;BME280;49073;42.352;23.808;2024-03-23T01:47:56;94735.91;;;0.42;76.20
62978;BME280;49073;42.352;23.808;2024-03-23T01:50:58;94729.25;;;0.50;75.94
62978;BME280;49073;42.352;23.808;2024-03-23T01:54:00;94728.47;;;0.50;76.05
62978;BME280;49073;42.352;23.808;2024-03-23T01:57:04;94727.13;;;0.52;75.25
62978;BME280;49073;42.352;23.808;2024-03-23T02:00:05;94726.50;;;0.41;75.77
62978;BME280;49073;42.352;23.808;2024-03-23T02:03:22;94722.25;;;0.46;75.49
62978;BME280;49073;42.352;23.808;2024-03-23T02:06:24;94737.44;;;0.30;75.20
62978;BME280;49073;42.352;23.808;2024-03-23T02:09:26;94733.22;;;0.14;76.59
62978;BME280;49073;42.352;23.808;2024-03-23T02:12:26;94729.09;;;0.08;77.13
62978;BME280;49073;42.352;23.808;2024-03-23T02:15:27;94732.50;;;0.09;77.49
62978;BME280;49073;42.352;23.808;2024-03-23T02:18:27;94735.97;;;0.04;77.09
62978;BME280;49073;42.352;23.808;2024-03-23T02:21:28;94738.44;;;0.14;76.57
62978;BME280;49073;42.352;23.808;2024-03-23T02:24:32;94733.22;;;0.14;77.05
62978;BME280;49073;42.352;23.808;2024-03-23T02:27:34;94734.19;;;0.19;75.97
62978;BME280;49073;42.352;23.808;2024-03-23T02:30:36;94730.00;;;0.18;75.91
62978;BME280;49073;42.352;23.808;2024-03-23T02:33:37;94735.25;;;-0.02;76.46
62978;BME280;49073;42.352;23.808;2024-03-23T02:36:38;94730.44;;;-0.13;76.59
62978;BME280;49073;42.352;23.808;2024-03-23T02:39:38;94733.47;;;-0.06;76.23
62978;BME280;49073;42.352;23.808;2024-03-23T02:42:39;94731.38;;;-0.23;76.97
62978;BME280;49073;42.352;23.808;2024-03-23T02:45:40;94731.06;;;-0.22;76.88
62978;BME280;49073;42.352;23.808;2024-03-23T02:48:40;94724.13;;;-0.12;77.69
62978;BME280;49073;42.352;23.808;2024-03-23T02:51:41;94723.22;;;-0.03;77.64
62978;BME280;49073;42.352;23.808;2024-03-23T02:54:41;94727.06;;;0.05;76.59
62978;BME280;49073;42.352;23.808;2024-03-23T02:57:46;94725.69;;;-0.11;75.87
62978;BME280;49073;42.352;23.808;2024-03-23T03:00:47;94726.31;;;-0.39;76.80
62978;BME280;49073;42.352;23.808;2024-03-23T03:03:47;94723.84;;;-0.30;77.99
62978;BME280;49073;42.352;23.808;2024-03-23T03:06:48;94723.06;;;-0.31;76.63
62978;BME280;49073;42.352;23.808;2024-03-23T03:09:49;94716.84;;;-0.35;77.38
62978;BME280;49073;42.352;23.808;2024-03-23T03:12:49;94715.09;;;-0.20;76.78
62978;BME280;49073;42.352;23.808;2024-03-23T03:15:50;94716.47;;;-0.47;77.51
62978;BME280;49073;42.352;23.808;2024-03-23T03:18:50;94708.78;;;-0.38;78.67
62978;BME280;49073;42.352;23.808;2024-03-23T03:21:53;94715.09;;;-0.20;77.88
62978;BME280;49073;42.352;23.808;2024-03-23T03:24:53;94719.19;;;-0.14;76.40
62978;BME280;49073;42.352;23.808;2024-03-23T03:27:54;94709.97;;;-0.31;77.89
62978;BME280;49073;42.352;23.808;2024-03-23T03:30:54;94718.41;;;-0.15;77.35
62978;BME280;49073;42.352;23.808;2024-03-23T03:33:55;94721.44;;;-0.07;75.97
62978;BME280;49073;42.352;23.808;2024-03-23T03:36:56;94714.72;;;-0.33;76.51
62978;BME280;49073;42.352;23.808;2024-03-23T03:39:57;94724.75;;;-0.40;76.84
62978;BME280;49073;42.352;23.808;2024-03-23T03:42:57;94728.22;;;-0.45;77.66
62978;BME280;49073;42.352;23.808;2024-03-23T03:45:59;94726.00;;;-0.56;77.90
62978;BME280;49073;42.352;23.808;2024-03-23T03:49:00;94724.78;;;-0.64;78.63
62978;BME280;49073;42.352;23.808;2024-03-23T03:52:00;94728.13;;;-0.59;78.54
62978;BME280;49073;42.352;23.808;2024-03-23T03:55:04;94732.13;;;-0.66;78.07
62978;BME280;49073;42.352;23.808;2024-03-23T03:58:11;94729.50;;;-0.85;79.50
62978;BME280;49073;42.352;23.808;2024-03-23T04:01:12;94735.00;;;-0.87;79.07
62978;BME280;49073;42.352;23.808;2024-03-23T04:04:12;94728.03;;;-0.73;79.19
62978;BME280;49073;42.352;23.808;2024-03-23T04:07:14;94731.44;;;-0.72;79.17
62978;BME280;49073;42.352;23.808;2024-03-23T04:10:15;94736.78;;;-0.58;78.38
62978;BME280;49073;42.352;23.808;2024-03-23T04:13:16;94739.34;;;-0.77;78.90
62978;BME280;49073;42.352;23.808;2024-03-23T04:16:29;94741.03;;;-0.92;79.19
62978;BME280;49073;42.352;23.808;2024-03-23T04:19:30;94733.94;;;-0.86;80.40
62978;BME280;49073;42.352;23.808;2024-03-23T04:22:30;94737.78;;;-0.78;78.59
62978;BME280;49073;42.352;23.808;2024-03-23T04:25:31;94737.00;;;-0.79;79.68
62978;BME280;49073;42.352;23.808;2024-03-23T04:28:32;94748.19;;;-0.97;79.51
62978;BME280;49073;42.352;23.808;2024-03-23T04:31:32;94740.59;;;-0.99;80.17
62978;BME280;49073;42.352;23.808;2024-03-23T04:34:34;94738.41;;;-0.86;80.76
62978;BME280;49073;42.352;23.808;2024-03-23T04:37:36;94736.94;;;-0.74;80.37
62978;BME280;49073;42.352;23.808;2024-03-23T04:40:37;94740.72;;;-0.85;80.16
62978;BME280;49073;42.352;23.808;2024-03-23T04:43:37;94746.00;;;-0.90;80.63
62978;BME280;49073;42.352;23.808;2024-03-23T04:46:37;94751.88;;;-0.74;81.13
62978;BME280;49073;42.352;23.808;2024-03-23T04:49:38;94738.38;;;-0.62;81.02
62978;BME280;49073;42.352;23.808;2024-03-23T04:52:39;94741.44;;;-0.55;80.34
62978;BME280;49073;42.352;23.808;2024-03-23T04:55:39;94742.94;;;-0.49;81.29
62978;BME280;49073;42.352;23.808;2024-03-23T04:58:40;94740.06;;;-0.28;81.58
62978;BME280;49073;42.352;23.808;2024-03-23T05:01:40;94741.47;;;-0.17;81.18
62978;BME280;49073;42.352;23.808;2024-03-23T05:04:42;94743.47;;;-0.08;80.97
62978;BME280;49073;42.352;23.808;2024-03-23T05:07:42;94742.78;;;0.05;81.18
62978;BME280;49073;42.352;23.808;2024-03-23T05:10:43;94741.41;;;0.27;80.81
62978;BME280;49073;42.352;23.808;2024-03-23T05:13:44;94737.56;;;0.38;81.32
62978;BME280;49073;42.352;23.808;2024-03-23T05:16:44;94730.81;;;0.51;81.22
62978;BME280;49073;42.352;23.808;2024-03-23T05:19:45;94732.50;;;0.61;81.27
62978;BME280;49073;42.352;23.808;2024-03-23T05:22:46;94706.16;;;0.52;81.41
62978;BME280;49073;42.352;23.808;2024-03-23T05:25:46;94723.19;;;0.69;81.30
62978;BME280;49073;42.352;23.808;2024-03-23T05:28:48;94740.41;;;0.89;81.02
62978;BME280;49073;42.352;23.808;2024-03-23T05:31:52;94727.69;;;0.96;81.28
62978;BME280;49073;42.352;23.808;2024-03-23T05:34:53;94730.03;;;1.12;81.94
62978;BME280;49073;42.352;23.808;2024-03-23T05:37:57;94727.13;;;1.27;81.95
62978;BME280;49073;42.352;23.808;2024-03-23T05:40:59;94725.38;;;1.37;81.71
62978;BME280;49073;42.352;23.808;2024-03-23T05:44:00;94728.06;;;1.45;82.09
62978;BME280;49073;42.352;23.808;2024-03-23T05:47:01;94730.59;;;1.65;82.04
62978;BME280;49073;42.352;23.808;2024-03-23T05:50:01;94724.34;;;1.74;80.74
62978;BME280;49073;42.352;23.808;2024-03-23T05:53:02;94725.81;;;1.81;79.52
62978;BME280;49073;42.352;23.808;2024-03-23T05:56:05;94717.53;;;1.87;78.14
62978;BME280;49073;42.352;23.808;2024-03-23T05:59:07;94723.69;;;2.06;78.45
62978;BME280;49073;42.352;23.808;2024-03-23T06:02:07;94709.00;;;2.04;79.15
62978;BME280;49073;42.352;23.808;2024-03-23T06:05:11;94717.06;;;2.08;79.48
62978;BME280;49073;42.352;23.808;2024-03-23T06:08:12;94716.31;;;2.08;78.01
62978;BME280;49073;42.352;23.808;2024-03-23T06:11:13;94717.44;;;2.15;76.35
62978;BME280;49073;42.352;23.808;2024-03-23T06:14:13;94725.88;;;2.26;76.63
62978;BME280;49073;42.352;23.808;2024-03-23T06:17:14;94702.31;;;2.21;77.18
62978;BME280;49073;42.352;23.808;2024-03-23T06:20:16;94712.28;;;2.56;78.31
62978;BME280;49073;42.352;23.808;2024-03-23T06:23:16;94717.66;;;2.73;78.99
62978;BME280;49073;42.352;23.808;2024-03-23T06:26:21;94717.44;;;2.93;79.60
62978;BME280;49073;42.352;23.808;2024-03-23T06:29:21;94721.91;;;2.92;78.69
62978;BME280;49073;42.352;23.808;2024-03-23T06:32:22;94721.34;;;2.95;78.92
62978;BME280;49073;42.352;23.808;2024-03-23T06:35:23;94720.75;;;3.07;78.07
62978;BME280;49073;42.352;23.808;2024-03-23T06:38:23;94716.75;;;3.18;77.12
62978;BME280;49073;42.352;23.808;2024-03-23T06:41:25;94719.34;;;3.41;77.12
62978;BME280;49073;42.352;23.808;2024-03-23T06:44:26;94715.03;;;3.63;75.72
62978;BME280;49073;42.352;23.808;2024-03-23T06:47:26;94722.00;;;3.59;73.80
62978;BME280;49073;42.352;23.808;2024-03-23T06:50:26;94709.31;;;3.70;73.29
62978;BME280;49073;42.352;23.808;2024-03-23T06:53:28;94712.13;;;3.82;71.32
62978;BME280;49073;42.352;23.808;2024-03-23T06:56:32;94717.72;;;3.98;69.50
62978;BME280;49073;42.352;23.808;2024-03-23T06:59:32;94723.16;;;4.19;69.33
62978;BME280;49073;42.352;23.808;2024-03-23T07:02:32;94709.34;;;4.31;68.95
62978;BME280;49073;42.352;23.808;2024-03-23T07:05:33;94715.06;;;4.51;68.95
62978;BME280;49073;42.352;23.808;2024-03-23T07:08:33;94710.03;;;4.76;70.27
62978;BME280;49073;42.352;23.808;2024-03-23T07:11:34;94691.69;;;4.88;69.25
62978;BME280;49073;42.352;23.808;2024-03-23T07:14:34;94708.25;;;5.06;67.77
62978;BME280;49073;42.352;23.808;2024-03-23T07:17:35;94699.34;;;5.20;66.20
62978;BME280;49073;42.352;23.808;2024-03-23T07:20:36;94687.50;;;5.26;67.52
62978;BME280;49073;42.352;23.808;2024-03-23T07:23:37;94699.13;;;5.64;65.12
62978;BME280;49073;42.352;23.808;2024-03-23T07:26:38;94696.94;;;5.87;63.96
62978;BME280;49073;42.352;23.808;2024-03-23T07:29:38;94685.84;;;5.94;63.08
62978;BME280;49073;42.352;23.808;2024-03-23T07:32:39;94686.34;;;6.17;61.47
62978;BME280;49073;42.352;23.808;2024-03-23T07:35:39;94679.09;;;6.26;62.71
62978;BME280;49073;42.352;23.808;2024-03-23T07:38:41;94680.56;;;6.36;61.28
62978;BME280;49073;42.352;23.808;2024-03-23T07:41:45;94673.50;;;6.74;61.59
62978;BME280;49073;42.352;23.808;2024-03-23T07:44:45;94664.81;;;6.86;61.84
62978;BME280;49073;42.352;23.808;2024-03-23T07:47:46;94680.41;;;7.12;61.29
62978;BME280;49073;42.352;23.808;2024-03-23T07:50:47;94667.47;;;7.23;60.82
62978;BME280;49073;42.352;23.808;2024-03-23T07:53:55;94655.78;;;7.49;59.62
62978;BME280;49073;42.352;23.808;2024-03-23T07:56:56;94651.78;;;7.55;59.04
62978;BME280;49073;42.352;23.808;2024-03-23T07:59:56;94655.84;;;7.65;60.78
62978;BME280;49073;42.352;23.808;2024-03-23T08:02:57;94654.25;;;7.89;59.73
62978;BME280;49073;42.352;23.808;2024-03-23T08:05:57;94644.06;;;7.91;57.88
62978;BME280;49073;42.352;23.808;2024-03-23T08:08:58;94637.38;;;8.10;57.66
62978;BME280;49073;42.352;23.808;2024-03-23T08:12:02;94654.16;;;8.42;56.35
62978;BME280;49073;42.352;23.808;2024-03-23T08:15:05;94651.84;;;8.69;57.20
62978;BME280;49073;42.352;23.808;2024-03-23T08:18:06;94649.44;;;8.80;55.66
62978;BME280;49073;42.352;23.808;2024-03-23T08:21:07;94639.34;;;8.86;55.87
62978;BME280;49073;42.352;23.808;2024-03-23T08:24:07;94645.53;;;9.06;55.10
62978;BME280;49073;42.352;23.808;2024-03-23T08:27:08;94640.47;;;9.17;55.54
62978;BME280;49073;42.352;23.808;2024-03-23T08:30:09;94630.38;;;9.42;55.83
62978;BME280;49073;42.352;23.808;2024-03-23T08:33:10;94634.91;;;9.58;55.25
62978;BME280;49073;42.352;23.808;2024-03-23T08:36:10;94640.06;;;9.86;53.37
62978;BME280;49073;42.352;23.808;2024-03-23T08:39:14;94623.88;;;9.95;53.21
62978;BME280;49073;42.352;23.808;2024-03-23T08:42:14;94629.97;;;10.15;51.59
62978;BME280;49073;42.352;23.808;2024-03-23T08:45:15;94621.56;;;10.33;50.11
62978;BME280;49073;42.352;23.808;2024-03-23T08:48:16;94616.16;;;10.49;52.21
62978;BME280;49073;42.352;23.808;2024-03-23T08:51:16;94602.69;;;10.61;48.07
62978;BME280;49073;42.352;23.808;2024-03-23T08:54:17;94609.47;;;11.05;49.85
62978;BME280;49073;42.352;23.808;2024-03-23T08:57:20;94606.72;;;11.25;47.51
62978;BME280;49073;42.352;23.808;2024-03-23T09:00:20;94602.03;;;11.45;46.97
62978;BME280;49073;42.352;23.808;2024-03-23T09:03:21;94601.91;;;11.65;43.79
62978;BME280;49073;42.352;23.808;2024-03-23T09:06:21;94587.31;;;11.86;43.22
62978;BME280;49073;42.352;23.808;2024-03-23T09:09:22;94587.97;;;12.10;44.93
62978;BME280;49073;42.352;23.808;2024-03-23T09:12:23;94563.50;;;12.04;44.07
62978;BME280;49073;42.352;23.808;2024-03-23T09:15:24;94581.53;;;12.52;43.18
62978;BME280;49073;42.352;23.808;2024-03-23T09:18:24;94568.19;;;12.52;41.75
62978;BME280;49073;42.352;23.808;2024-03-23T09:21:25;94565.75;;;12.81;41.00
62978;BME280;49073;42.352;23.808;2024-03-23T09:24:25;94563.34;;;13.21;39.20
62978;BME280;49073;42.352;23.808;2024-03-23T09:27:26;94556.97;;;13.40;39.07
62978;BME280;49073;42.352;23.808;2024-03-23T09:30:26;94547.84;;;13.45;36.33
62978;BME280;49073;42.352;23.808;2024-03-23T09:33:27;94551.00;;;13.61;36.15
62978;BME280;49073;42.352;23.808;2024-03-23T09:36:29;94551.78;;;13.62;34.78
62978;BME280;49073;42.352;23.808;2024-03-23T09:39:30;94535.69;;;13.65;33.38
62978;BME280;49073;42.352;23.808;2024-03-23T09:42:31;94522.06;;;14.10;35.74
62978;BME280;49073;42.352;23.808;2024-03-23T09:45:34;94528.66;;;14.49;38.24
62978;BME280;49073;42.352;23.808;2024-03-23T09:48:36;94522.16;;;14.65;35.68
62978;BME280;49073;42.352;23.808;2024-03-23T09:51:36;94512.97;;;14.59;36.08
62978;BME280;49073;42.352;23.808;2024-03-23T09:54:37;94506.81;;;14.62;36.18
62978;BME280;49073;42.352;23.808;2024-03-23T09:57:38;94508.00;;;14.79;34.20
62978;BME280;49073;42.352;23.808;2024-03-23T10:00:38;94503.38;;;15.05;34.56
62978;BME280;49073;42.352;23.808;2024-03-23T10:03:43;94505.63;;;15.17;35.46
62978;BME280;49073;42.352;23.808;2024-03-23T10:06:44;94496.84;;;15.02;32.02
62978;BME280;49073;42.352;23.808;2024-03-23T10:09:45;94485.34;;;15.12;34.46
62978;BME280;49073;42.352;23.808;2024-03-23T10:12:48;94485.97;;;15.56;34.51
62978;BME280;49073;42.352;23.808;2024-03-23T10:15:58;94491.69;;;15.66;33.01
62978;BME280;49073;42.352;23.808;2024-03-23T10:18:59;94481.97;;;15.97;34.19
62978;BME280;49073;42.352;23.808;2024-03-23T10:21:59;94476.63;;;15.83;32.72
62978;BME280;49073;42.352;23.808;2024-03-23T10:25:10;94469.00;;;15.74;31.59
62978;BME280;49073;42.352;23.808;2024-03-23T10:28:11;94458.91;;;16.00;30.42
62978;BME280;49073;42.352;23.808;2024-03-23T10:31:12;94466.63;;;15.98;31.61
62978;BME280;49073;42.352;23.808;2024-03-23T10:34:12;94461.88;;;16.20;30.81
62978;BME280;49073;42.352;23.808;2024-03-23T10:37:13;94456.38;;;16.35;31.37
62978;BME280;49073;42.352;23.808;2024-03-23T10:40:15;94447.81;;;16.47;30.02
62978;BME280;49073;42.352;23.808;2024-03-23T10:43:16;94450.72;;;16.18;29.41
62978;BME280;49073;42.352;23.808;2024-03-23T10:46:16;94443.84;;;16.13;29.34
62978;BME280;49073;42.352;23.808;2024-03-23T10:49:17;94428.84;;;16.16;30.61
62978;BME280;49073;42.352;23.808;2024-03-23T10:52:18;94427.09;;;15.95;29.20
62978;BME280;49073;42.352;23.808;2024-03-23T10:55:19;94436.94;;;16.12;29.34
62978;BME280;49073;42.352;23.808;2024-03-23T10:58:31;94432.03;;;16.53;29.55
62978;BME280;49073;42.352;23.808;2024-03-23T11:01:33;94408.94;;;16.55;29.24
62978;BME280;49073;42.352;23.808;2024-03-23T11:04:37;94419.47;;;16.35;27.04
62978;BME280;49073;42.352;23.808;2024-03-23T11:07:49;94413.69;;;16.40;27.34
62978;BME280;49073;42.352;23.808;2024-03-23T11:10:50;94401.75;;;16.45;28.03
62978;BME280;49073;42.352;23.808;2024-03-23T11:13:52;94404.50;;;16.76;28.75
62978;BME280;49073;42.352;23.808;2024-03-23T11:17:08;94392.56;;;16.39;26.13
62978;BME280;49073;42.352;23.808;2024-03-23T11:20:11;94400.06;;;16.17;27.19
62978;BME280;49073;42.352;23.808;2024-03-23T11:23:27;94383.56;;;16.14;26.53
62978;BME280;49073;42.352;23.808;2024-03-23T11:26:28;94386.56;;;16.24;26.91
62978;BME280;49073;42.352;23.808;2024-03-23T11:29:29;94376.41;;;16.42;27.09
62978;BME280;49073;42.352;23.808;2024-03-23T11:32:30;94373.56;;;16.95;26.72
62978;BME280;49073;42.352;23.808;2024-03-23T11:35:37;94363.03;;;17.12;27.46
62978;BME280;49073;42.352;23.808;2024-03-23T11:38:40;94363.44;;;17.10;25.59
62978;BME280;49073;42.352;23.808;2024-03-23T11:41:52;94360.19;;;16.88;26.13
62978;BME280;49073;42.352;23.808;2024-03-23T11:44:52;94351.94;;;17.06;24.75
62978;BME280;49073;42.352;23.808;2024-03-23T11:48:04;94349.03;;;16.90;26.97
62978;BME280;49073;42.352;23.808;2024-03-23T11:51:05;94340.81;;;17.04;26.62
62978;BME280;49073;42.352;23.808;2024-03-23T11:54:09;94342.41;;;17.29;25.64
62978;BME280;49073;42.352;23.808;2024-03-23T11:57:09;94329.75;;;17.57;26.05
62978;BME280;49073;42.352;23.808;2024-03-23T12:00:22;94329.50;;;17.48;26.22
62978;BME280;49073;42.352;23.808;2024-03-23T12:03:24;94323.63;;;17.25;27.56
62978;BME280;49073;42.352;23.808;2024-03-23T12:06:28;94320.47;;;16.99;27.94
62978;BME280;49073;42.352;23.808;2024-03-23T12:09:29;94313.44;;;17.40;28.08
62978;BME280;49073;42.352;23.808;2024-03-23T12:12:29;94306.06;;;17.44;26.20
62978;BME280;49073;42.352;23.808;2024-03-23T12:15:30;94302.84;;;17.53;26.00
62978;BME280;49073;42.352;23.808;2024-03-23T12:18:30;94298.22;;;17.26;26.07
62978;BME280;49073;42.352;23.808;2024-03-23T12:21:31;94290.97;;;17.51;27.10
62978;BME280;49073;42.352;23.808;2024-03-23T12:24:32;94291.81;;;17.44;25.53
62978;BME280;49073;42.352;23.808;2024-03-23T12:27:34;94291.06;;;17.43;27.30
62978;BME280;49073;42.352;23.808;2024-03-23T12:30:36;94278.09;;;17.62;26.31
62978;BME280;49073;42.352;23.808;2024-03-23T12:33:39;94284.38;;;17.79;27.08
62978;BME280;49073;42.352;23.808;2024-03-23T12:36:39;94264.41;;;17.49;29.00
62978;BME280;49073;42.352;23.808;2024-03-23T12:39:40;94271.72;;;17.76;29.69
62978;BME280;49073;42.352;23.808;2024-03-23T12:42:40;94268.47;;;17.85;28.62
62978;BME280;49073;42.352;23.808;2024-03-23T12:45:46;94260.97;;;17.72;27.84
62978;BME280;49073;42.352;23.808;2024-03-23T12:48:46;94259.22;;;17.62;29.79
62978;BME280;49073;42.352;23.808;2024-03-23T12:51:55;94259.63;;;17.60;29.95
62978;BME280;49073;42.352;23.808;2024-03-23T12:54:56;94258.88;;;17.60;30.75
62978;BME280;49073;42.352;23.808;2024-03-23T12:57:57;94256.41;;;17.69;29.76
62978;BME280;49073;42.352;23.808;2024-03-23T13:01:00;94240.78;;;17.33;29.08
62978;BME280;49073;42.352;23.808;2024-03-23T13:04:01;94243.84;;;17.35;29.98
62978;BME280;49073;42.352;23.808;2024-03-23T13:07:02;94239.84;;;17.20;30.53
62978;BME280;49073;42.352;23.808;2024-03-23T13:10:04;94232.28;;;17.11;30.13
62978;BME280;49073;42.352;23.808;2024-03-23T13:13:05;94233.34;;;17.17;30.37
62978;BME280;49073;42.352;23.808;2024-03-23T13:16:08;94234.16;;;16.83;29.88
62978;BME280;49073;42.352;23.808;2024-03-23T13:19:09;94219.13;;;17.16;31.39
62978;BME280;49073;42.352;23.808;2024-03-23T13:22:09;94227.44;;;16.98;30.61
62978;BME280;49073;42.352;23.808;2024-03-23T13:25:13;94222.41;;;17.00;31.62
62978;BME280;49073;42.352;23.808;2024-03-23T13:28:13;94218.84;;;16.76;31.89
62978;BME280;49073;42.352;23.808;2024-03-23T13:31:14;94209.91;;;16.86;31.19
62978;BME280;49073;42.352;23.808;2024-03-23T13:34:15;94211.00;;;16.89;30.35
62978;BME280;49073;42.352;23.808;2024-03-23T13:37:16;94202.88;;;16.93;32.51
62978;BME280;49073;42.352;23.808;2024-03-23T13:40:16;94206.75;;;16.92;31.11
62978;BME280;49073;42.352;23.808;2024-03-23T13:43:17;94197.59;;;16.85;30.65
62978;BME280;49073;42.352;23.808;2024-03-23T13:46:17;94202.56;;;16.87;30.23
62978;BME280;49073;42.352;23.808;2024-03-23T13:49:26;94203.06;;;16.78;31.01
62978;BME280;49073;42.352;23.808;2024-03-23T13:52:28;94203.44;;;16.80;30.45
62978;BME280;49073;42.352;23.808;2024-03-23T13:55:29;94188.34;;;16.59;30.09
62978;BME280;49073;42.352;23.808;2024-03-23T13:58:30;94198.41;;;16.82;30.76
62978;BME280;49073;42.352;23.808;2024-03-23T14:01:30;94196.22;;;16.73;30.82
62978;BME280;49073;42.352;23.808;2024-03-23T14:04:32;94192.22;;;16.54;31.97
62978;BME280;49073;42.352;23.808;2024-03-23T14:07:32;94190.47;;;16.40;30.31
62978;BME280;49073;42.352;23.808;2024-03-23T14:10:33;94198.19;;;16.38;31.32
62978;BME280;49073;42.352;23.808;2024-03-23T14:13:34;94191.72;;;16.32;30.55
62978;BME280;49073;42.352;23.808;2024-03-23T14:16:35;94181.53;;;16.16;32.44
62978;BME280;49073;42.352;23.808;2024-03-23T14:19:35;94179.19;;;16.18;31.28
62978;BME280;49073;42.352;23.808;2024-03-23T14:22:36;94186.19;;;16.12;31.30
62978;BME280;49073;42.352;23.808;2024-03-23T14:25:36;94174.63;;;16.15;31.71
62978;BME280;49073;42.352;23.808;2024-03-23T14:28:37;94183.91;;;16.10;32.27
62978;BME280;49073;42.352;23.808;2024-03-23T14:31:37;94180.22;;;15.97;31.68
62978;BME280;49073;42.352;23.808;2024-03-23T14:34:38;94179.22;;;15.80;30.67
62978;BME280;49073;42.352;23.808;2024-03-23T14:37:38;94179.22;;;15.80;31.12
62978;BME280;49073;42.352;23.808;2024-03-23T14:40:39;94170.50;;;15.68;31.32
62978;BME280;49073;42.352;23.808;2024-03-23T14:43:40;94176.44;;;15.45;30.92
62978;BME280;49073;42.352;23.808;2024-03-23T14:46:40;94181.84;;;15.41;30.78
62978;BME280;49073;42.352;23.808;2024-03-23T14:49:41;94181.53;;;15.32;31.13
62978;BME280;49073;42.352;23.808;2024-03-23T14:52:45;94166.59;;;15.31;31.94
62978;BME280;49073;42.352;23.808;2024-03-23T14:55:47;94181.97;;;15.27;31.14
62978;BME280;49073;42.352;23.808;2024-03-23T14:58:52;94170.09;;;15.24;31.57
62978;BME280;49073;42.352;23.808;2024-03-23T15:01:53;94169.38;;;15.17;31.78
62978;BME280;49073;42.352;23.808;2024-03-23T15:04:54;94163.59;;;15.22;32.13
62978;BME280;49073;42.352;23.808;2024-03-23T15:07:55;94161.34;;;15.13;31.44
62978;BME280;49073;42.352;23.808;2024-03-23T15:10:59;94161.50;;;14.91;31.57
62978;BME280;49073;42.352;23.808;2024-03-23T15:13:59;94165.72;;;14.92;31.95
62978;BME280;49073;42.352;23.808;2024-03-23T15:17:00;94162.72;;;14.83;30.96
62978;BME280;49073;42.352;23.808;2024-03-23T15:20:05;94158.19;;;14.65;31.55
62978;BME280;49073;42.352;23.808;2024-03-23T15:23:06;94157.84;;;14.60;31.77
62978;BME280;49073;42.352;23.808;2024-03-23T15:26:07;94168.63;;;14.49;31.84
62978;BME280;49073;42.352;23.808;2024-03-23T15:29:07;94164.81;;;14.43;31.66
62978;BME280;49073;42.352;23.808;2024-03-23T15:32:12;94162.91;;;14.39;32.06
62978;BME280;49073;42.352;23.808;2024-03-23T15:35:14;94145.03;;;14.11;31.35
62978;BME280;49073;42.352;23.808;2024-03-23T15:38:15;94157.28;;;14.16;31.78
62978;BME280;49073;42.352;23.808;2024-03-23T15:41:16;94163.03;;;14.10;31.80
62978;BME280;49073;42.352;23.808;2024-03-23T15:44:17;94154.22;;;14.06;31.88
62978;BME280;49073;42.352;23.808;2024-03-23T15:47:17;94155.84;;;13.89;31.47
62978;BME280;49073;42.352;23.808;2024-03-23T15:50:19;94157.38;;;13.87;32.55
62978;BME280;49073;42.352;23.808;2024-03-23T15:53:21;94163.50;;;13.73;33.12
62978;BME280;49073;42.352;23.808;2024-03-23T15:56:22;94162.34;;;13.74;33.11
62978;BME280;49073;42.352;23.808;2024-03-23T15:59:24;94165.06;;;13.70;32.12
62978;BME280;49073;42.352;23.808;2024-03-23T16:02:24;94159.34;;;13.57;33.12
62978;BME280;49073;42.352;23.808;2024-03-23T16:05:25;94158.97;;;13.48;33.10
62978;BME280;49073;42.352;23.808;2024-03-23T16:08:28;94168.53;;;13.34;33.28
62978;BME280;49073;42.352;23.808;2024-03-23T16:11:28;94162.78;;;13.32;33.83
62978;BME280;49073;42.352;23.808;2024-03-23T16:14:30;94157.41;;;13.25;33.67
62978;BME280;49073;42.352;23.808;2024-03-23T16:17:30;94160.47;;;13.05;33.25
62978;BME280;49073;42.352;23.808;2024-03-23T16:20:35;94165.47;;;13.14;33.69
62978;BME280;49073;42.352;23.808;2024-03-23T16:23:36;94168.91;;;13.04;34.27
62978;BME280;49073;42.352;23.808;2024-03-23T16:26:45;94164.69;;;13.03;34.88
62978;BME280;49073;42.352;23.808;2024-03-23T16:29:45;94165.44;;;12.92;34.88
62978;BME280;49073;42.352;23.808;2024-03-23T16:32:49;94165.81;;;12.76;35.42
62978;BME280;49073;42.352;23.808;2024-03-23T16:39:03;94173.84;;;12.94;36.79
62978;BME280;49073;42.352;23.808;2024-03-23T16:42:03;94173.44;;;12.85;37.23
62978;BME280;49073;42.352;23.808;2024-03-23T16:45:05;94174.16;;;12.53;38.51
62978;BME280;49073;42.352;23.808;2024-03-23T16:48:08;94178.22;;;12.14;40.31